TAF KAGC
AMD KAGC 270751Z 2708/2806 27008KT P6SM OVC035 FM271400 24009KT P6SM BKN050 FM280000 18005KT 5SM -SN BKN035=
METAR KAGC
WC KAGC
WS KAGC
WV KAGC